Time;durP1;ratioP1;P1;durP2;ratioP2;P2;SDS_P1;SDS_P2;PMS_P1;PMS_P2;Temp;Humidity;BMP_temperature;BMP_pressure;BME280_temperature;BME280_humidity;BME280_pressure;Samples;Min_cycle;Max_cycle;Signal;HPM_P1;HPM_P2
2022/10/13 00:01:25;;;;;;;25.67;14.30;;;14.60;99.90;;;;;;5038165;28;21128;-74
2022/10/13 00:03:51;;;;;;;20.27;13.27;;;14.60;99.90;;;;;;5038693;28;20426;-74
2022/10/13 00:06:18;;;;;;;19.50;13.57;;;14.50;99.90;;;;;;5040685;28;20461;-74
2022/10/13 00:08:45;;;;;;;18.43;14.13;;;14.50;99.90;;;;;;5036444;28;20445;-72
2022/10/13 00:11:22;;;;;;;22.27;13.80;;;14.60;99.90;;;;;;5031695;28;20872;-73
2022/10/13 00:13:48;;;;;;;23.10;13.30;;;14.50;99.90;;;;;;5017706;28;20514;-71
2022/10/13 00:16:17;;;;;;;16.30;12.50;;;14.60;99.90;;;;;;5016541;28;20443;-71
2022/10/13 00:18:42;;;;;;;13.80;12.13;;;14.60;99.90;;;;;;5035016;28;20437;-73
2022/10/13 00:21:11;;;;;;;15.77;11.37;;;14.50;99.90;;;;;;5036956;28;21190;-72
2022/10/13 00:23:38;;;;;;;15.93;12.53;;;14.40;99.90;;;;;;5032221;28;20607;-72
2022/10/13 00:26:05;;;;;;;18.67;13.30;;;14.30;99.90;;;;;;5032573;28;20465;-71
2022/10/13 00:28:31;;;;;;;18.80;13.17;;;14.40;99.90;;;;;;5022402;28;20427;-72
2022/10/13 00:30:56;;;;;;;18.53;12.70;;;14.40;99.90;;;;;;5038826;28;20801;-74
2022/10/13 00:33:22;;;;;;;15.50;11.07;;;14.40;99.90;;;;;;5033118;28;20184;-73
2022/10/13 00:35:48;;;;;;;15.23;11.07;;;14.40;99.90;;;;;;5036816;28;20561;-72
2022/10/13 00:38:15;;;;;;;22.60;12.87;;;14.40;99.90;;;;;;5036926;28;20196;-70
2022/10/13 00:40:46;;;;;;;14.07;11.80;;;14.40;99.90;;;;;;5034059;28;20459;-73
2022/10/13 00:43:19;;;;;;;21.40;12.80;;;14.30;99.90;;;;;;5033371;28;20430;-73
2022/10/13 00:45:48;;;;;;;18.97;13.07;;;14.30;99.90;;;;;;5039226;28;20474;-74
2022/10/13 00:48:14;;;;;;;15.90;11.90;;;14.30;99.90;;;;;;5029319;28;20438;-71
2022/10/13 00:50:41;;;;;;;21.13;12.27;;;14.30;99.90;;;;;;5033234;28;20492;-72
2022/10/13 00:53:10;;;;;;;16.20;12.17;;;14.40;99.90;;;;;;5028519;28;20700;-74
2022/10/13 00:55:38;;;;;;;19.80;11.70;;;14.30;99.90;;;;;;5032930;28;21043;-74
2022/10/13 00:58:07;;;;;;;15.30;12.70;;;14.40;99.90;;;;;;5032294;28;20430;-71
2022/10/13 01:00:34;;;;;;;19.23;12.30;;;14.40;99.90;;;;;;5034986;28;20834;-72
2022/10/13 01:03:01;;;;;;;19.77;12.80;;;14.40;99.90;;;;;;5031282;28;20928;-72
2022/10/13 01:05:27;;;;;;;21.60;14.43;;;14.40;99.90;;;;;;5034431;28;20470;-71
2022/10/13 01:07:53;;;;;;;14.67;12.00;;;14.40;99.90;;;;;;5030346;28;20433;-73
2022/10/13 01:10:35;;;;;;;15.17;12.90;;;14.40;99.90;;;;;;5034009;28;20461;-71
2022/10/13 01:13:09;;;;;;;18.20;12.23;;;14.40;99.90;;;;;;5016578;28;20497;-72
2022/10/13 01:15:58;;;;;;;16.30;12.20;;;14.40;99.90;;;;;;5033856;28;20437;-73
2022/10/13 01:18:30;;;;;;;14.57;10.90;;;14.30;99.90;;;;;;5018029;28;20537;-72
2022/10/13 01:21:04;;;;;;;17.17;12.30;;;14.40;99.90;;;;;;5034460;28;20457;-74
2022/10/13 01:24:00;;;;;;;17.63;12.87;;;14.30;99.90;;;;;;5032836;28;20451;-71
2022/10/13 01:26:29;;;;;;;20.97;13.00;;;14.30;99.90;;;;;;5033470;28;20599;-73
2022/10/13 01:29:03;;;;;;;18.97;13.47;;;14.30;99.90;;;;;;5038377;28;20430;-71
2022/10/13 01:31:44;;;;;;;20.13;12.80;;;14.30;99.90;;;;;;5035943;28;20524;-72
2022/10/13 01:34:19;;;;;;;21.87;12.90;;;14.30;99.90;;;;;;5031303;28;20438;-72
2022/10/13 01:36:53;;;;;;;20.53;13.43;;;14.30;99.90;;;;;;5010471;28;20431;-72
2022/10/13 01:39:50;;;;;;;17.53;12.37;;;14.30;99.90;;;;;;5031020;28;20489;-71
2022/10/13 01:42:21;;;;;;;16.20;11.90;;;14.30;99.90;;;;;;5030748;28;20458;-73
2022/10/13 01:44:54;;;;;;;15.73;13.10;;;14.30;99.90;;;;;;5032173;28;20478;-73
2022/10/13 01:47:21;;;;;;;19.13;12.90;;;14.40;99.90;;;;;;5030092;28;20439;-73
2022/10/13 01:49:49;;;;;;;17.47;12.67;;;14.30;99.90;;;;;;5031775;28;21197;-72
2022/10/13 01:52:19;;;;;;;19.50;13.27;;;14.40;99.90;;;;;;5031219;28;20445;-72
2022/10/13 01:54:51;;;;;;;14.57;11.93;;;14.40;99.90;;;;;;5038058;28;21127;-72
2022/10/13 01:57:42;;;;;;;15.07;11.80;;;14.40;99.90;;;;;;5033741;28;20427;-73
2022/10/13 02:00:16;;;;;;;16.00;13.07;;;14.50;99.90;;;;;;5015604;28;20470;-74
2022/10/13 02:03:19;;;;;;;15.87;11.73;;;14.50;99.90;;;;;;5039040;28;20431;-72
2022/10/13 02:06:09;;;;;;;19.47;10.23;;;14.50;99.90;;;;;;5035373;28;20463;-74
2022/10/13 02:08:56;;;;;;;18.27;11.17;;;14.60;99.90;;;;;;5034852;28;20459;-71
2022/10/13 02:11:23;;;;;;;16.90;11.67;;;14.60;99.90;;;;;;5032605;28;20434;-72
2022/10/13 02:14:07;;;;;;;16.30;11.97;;;14.60;99.90;;;;;;5033707;28;20435;-73
2022/10/13 02:16:39;;;;;;;17.83;11.73;;;14.60;99.90;;;;;;5034518;28;20495;-72
2022/10/13 02:19:06;;;;;;;15.97;12.23;;;14.60;99.90;;;;;;5031976;28;20466;-71
2022/10/13 02:21:34;;;;;;;14.77;11.57;;;14.60;99.90;;;;;;5033330;28;21273;-71
2022/10/13 02:24:00;;;;;;;13.57;11.73;;;14.60;99.90;;;;;;5034043;28;21688;-73
2022/10/13 02:26:26;;;;;;;15.43;11.40;;;14.70;99.90;;;;;;5006101;28;20535;-72
2022/10/13 02:28:52;;;;;;;18.77;10.70;;;14.70;99.90;;;;;;5032469;28;20431;-72
2022/10/13 02:31:17;;;;;;;12.33;11.00;;;14.70;99.90;;;;;;5032424;28;20430;-74
2022/10/13 02:33:43;;;;;;;15.23;10.70;;;14.70;99.90;;;;;;5034012;28;20730;-72
2022/10/13 02:36:08;;;;;;;17.20;10.53;;;14.60;99.90;;;;;;5032683;28;20198;-71
2022/10/13 02:38:34;;;;;;;18.63;10.70;;;14.60;99.90;;;;;;5032569;28;20194;-70
2022/10/13 02:41:01;;;;;;;17.13;11.13;;;14.60;99.90;;;;;;5034818;28;20279;-73
2022/10/13 02:43:27;;;;;;;16.23;10.93;;;14.60;99.90;;;;;;5032420;28;20329;-75
2022/10/13 02:45:53;;;;;;;16.43;11.80;;;14.70;99.90;;;;;;5034006;28;20973;-72
2022/10/13 02:48:18;;;;;;;12.80;10.27;;;14.70;99.90;;;;;;5030671;28;20435;-72
2022/10/13 02:50:45;;;;;;;32.57;11.37;;;14.70;99.90;;;;;;5034978;28;20257;-71
2022/10/13 02:53:11;;;;;;;18.23;13.03;;;14.70;99.90;;;;;;5029305;28;20229;-71
2022/10/13 02:55:36;;;;;;;13.87;10.40;;;14.70;99.90;;;;;;5028778;28;21242;-73
2022/10/13 02:58:02;;;;;;;15.17;11.57;;;14.70;99.90;;;;;;5012721;28;20203;-71
2022/10/13 03:00:27;;;;;;;12.03;10.57;;;14.70;99.90;;;;;;5030977;28;20208;-71
2022/10/13 03:02:53;;;;;;;15.10;11.40;;;14.70;99.90;;;;;;5031573;28;21052;-72
2022/10/13 03:05:18;;;;;;;13.97;10.20;;;14.70;99.90;;;;;;5027843;28;20208;-69
2022/10/13 03:07:44;;;;;;;17.43;11.23;;;14.70;99.90;;;;;;5034531;28;20266;-73
2022/10/13 03:10:10;;;;;;;14.07;10.40;;;14.70;99.90;;;;;;5019606;28;20734;-70
2022/10/13 03:12:36;;;;;;;15.37;10.60;;;14.70;99.90;;;;;;5034175;28;20183;-72
2022/10/13 03:15:01;;;;;;;19.40;10.87;;;14.70;99.90;;;;;;5031036;28;20184;-72
2022/10/13 03:17:27;;;;;;;16.10;10.30;;;14.70;99.90;;;;;;5032541;28;20270;-73
2022/10/13 03:19:52;;;;;;;14.63;10.87;;;14.70;99.90;;;;;;5031518;28;20821;-71
2022/10/13 03:22:18;;;;;;;17.13;11.20;;;14.70;99.90;;;;;;5016089;28;20188;-73
2022/10/13 03:24:43;;;;;;;20.30;11.03;;;14.70;99.90;;;;;;5031671;28;20203;-73
2022/10/13 03:27:09;;;;;;;21.20;11.50;;;14.70;99.90;;;;;;5018928;28;20604;-73
2022/10/13 03:29:35;;;;;;;19.73;12.17;;;14.70;99.90;;;;;;5034257;28;20321;-72
2022/10/13 03:32:01;;;;;;;14.23;10.77;;;14.60;99.90;;;;;;5034137;28;20191;-71
2022/10/13 03:34:26;;;;;;;17.10;12.80;;;14.60;99.90;;;;;;5036019;28;20191;-71
2022/10/13 03:36:52;;;;;;;18.77;10.83;;;14.60;99.90;;;;;;5019795;28;20187;-73
2022/10/13 03:39:21;;;;;;;14.07;11.70;;;14.60;99.90;;;;;;5041144;28;20227;-73
2022/10/13 03:41:46;;;;;;;18.07;11.70;;;14.60;99.90;;;;;;5023618;28;20564;-72
2022/10/13 03:44:12;;;;;;;14.63;11.60;;;14.60;99.90;;;;;;5022733;28;20453;-73
2022/10/13 03:46:38;;;;;;;12.30;10.93;;;14.60;99.90;;;;;;5032358;28;20216;-72
2022/10/13 03:49:03;;;;;;;18.80;12.37;;;14.60;99.90;;;;;;5035465;28;20207;-72
2022/10/13 03:51:29;;;;;;;16.53;11.70;;;14.60;99.90;;;;;;5042931;28;20449;-73
2022/10/13 03:54:03;;;;;;;14.07;12.07;;;14.60;99.90;;;;;;5037531;28;20279;-72
2022/10/13 03:56:28;;;;;;;18.70;12.37;;;14.60;99.90;;;;;;5022100;28;20648;-73
2022/10/13 03:58:56;;;;;;;16.17;11.90;;;14.60;99.90;;;;;;5032299;28;20435;-74
2022/10/13 04:01:24;;;;;;;15.60;12.93;;;14.60;99.90;;;;;;5034834;28;20187;-73
2022/10/13 04:03:52;;;;;;;17.27;12.07;;;14.50;99.90;;;;;;5036445;28;21502;-72
2022/10/13 04:06:18;;;;;;;18.43;12.73;;;14.50;99.90;;;;;;5040713;28;20820;-73
2022/10/13 04:08:44;;;;;;;20.10;12.97;;;14.50;99.90;;;;;;5044119;28;20429;-70
2022/10/13 04:11:12;;;;;;;17.07;12.47;;;14.50;99.90;;;;;;5042781;28;20631;-72
2022/10/13 04:13:37;;;;;;;14.17;12.17;;;14.50;99.90;;;;;;5038442;28;20176;-71
2022/10/13 04:16:08;;;;;;;16.40;12.03;;;14.50;99.90;;;;;;5034523;28;20832;-72
2022/10/13 04:18:34;;;;;;;13.20;11.70;;;14.50;99.90;;;;;;5037882;28;20180;-72
2022/10/13 04:21:00;;;;;;;19.47;11.67;;;14.50;99.90;;;;;;5038221;28;20503;-73
2022/10/13 04:23:26;;;;;;;19.70;12.00;;;14.50;99.90;;;;;;5033528;28;20425;-73
2022/10/13 04:25:51;;;;;;;20.30;13.17;;;14.50;99.90;;;;;;5018451;28;20882;-71
2022/10/13 04:28:17;;;;;;;17.00;12.50;;;14.50;99.90;;;;;;5037937;28;20183;-72
2022/10/13 04:30:43;;;;;;;20.17;13.70;;;14.50;99.90;;;;;;5037444;28;20212;-72
2022/10/13 04:33:08;;;;;;;16.60;12.13;;;14.50;99.90;;;;;;5040107;28;20192;-71
2022/10/13 04:35:40;;;;;;;19.40;12.60;;;14.40;99.90;;;;;;5038869;28;20215;-73
2022/10/13 04:38:06;;;;;;;18.57;12.80;;;14.40;99.90;;;;;;5038788;28;20211;-72
2022/10/13 04:40:32;;;;;;;14.00;11.80;;;14.40;99.90;;;;;;5039178;28;20465;-70
2022/10/13 04:42:58;;;;;;;15.60;12.10;;;14.40;99.90;;;;;;5039431;28;20429;-73
2022/10/13 04:45:23;;;;;;;17.07;12.20;;;14.50;99.90;;;;;;5037586;28;20458;-74
2022/10/13 04:47:49;;;;;;;15.40;11.50;;;14.40;99.90;;;;;;5038144;28;20604;-73
2022/10/13 04:50:15;;;;;;;17.27;12.13;;;14.40;99.90;;;;;;5019933;28;20296;-73
2022/10/13 04:52:40;;;;;;;13.50;11.30;;;14.40;99.90;;;;;;5036634;28;20219;-74
2022/10/13 04:55:07;;;;;;;14.73;11.83;;;14.40;99.90;;;;;;5034141;28;20192;-73
2022/10/13 04:57:33;;;;;;;20.60;13.00;;;14.40;99.90;;;;;;5039275;28;20253;-70
2022/10/13 04:59:59;;;;;;;14.93;12.10;;;14.30;99.90;;;;;;5021319;28;20463;-72
2022/10/13 05:02:25;;;;;;;15.43;12.40;;;14.30;99.90;;;;;;5035683;28;20663;-71
2022/10/13 05:04:50;;;;;;;18.93;12.83;;;14.30;99.90;;;;;;5037091;28;20204;-71
2022/10/13 05:07:16;;;;;;;22.60;12.87;;;14.40;99.90;;;;;;5037600;28;20180;-73
2022/10/13 05:09:41;;;;;;;14.50;12.30;;;14.40;99.90;;;;;;5036528;28;20200;-73
2022/10/13 05:12:07;;;;;;;14.00;11.50;;;14.40;99.90;;;;;;5034018;28;20578;-73
2022/10/13 05:14:33;;;;;;;14.80;11.50;;;14.30;99.90;;;;;;5038875;28;20602;-71
2022/10/13 05:17:00;;;;;;;15.87;11.33;;;14.40;99.90;;;;;;5035082;28;20202;-72
2022/10/13 05:19:25;;;;;;;16.00;11.60;;;14.40;99.90;;;;;;5038273;28;20996;-71
2022/10/13 05:21:51;;;;;;;14.00;11.23;;;14.40;99.90;;;;;;5033034;28;20439;-73
2022/10/13 05:24:16;;;;;;;16.67;11.30;;;14.40;99.90;;;;;;5033303;28;20177;-72
2022/10/13 05:26:42;;;;;;;18.73;12.40;;;14.40;99.90;;;;;;5034674;28;20253;-73
2022/10/13 05:29:08;;;;;;;19.83;11.40;;;14.30;99.90;;;;;;5034706;28;20986;-71
2022/10/13 05:31:35;;;;;;;15.43;11.23;;;14.30;99.90;;;;;;5019975;28;20206;-72
2022/10/13 05:34:00;;;;;;;16.40;11.10;;;14.30;99.90;;;;;;5021318;28;20184;-73
2022/10/13 05:36:29;;;;;;;13.70;10.60;;;14.30;99.90;;;;;;5031630;28;21052;-73
2022/10/13 05:38:58;;;;;;;14.93;10.90;;;14.30;99.90;;;;;;5036746;28;20710;-72
2022/10/13 05:41:25;;;;;;;14.40;11.43;;;14.30;99.90;;;;;;5021860;28;20431;-70
2022/10/13 05:43:56;;;;;;;19.60;13.07;;;14.30;99.90;;;;;;5036095;28;20824;-71
2022/10/13 05:46:21;;;;;;;17.60;13.10;;;14.30;99.90;;;;;;5016030;28;20470;-72
2022/10/13 05:48:47;;;;;;;19.60;12.50;;;14.20;99.90;;;;;;5035517;28;20418;-72
2022/10/13 05:51:17;;;;;;;17.30;12.27;;;14.20;99.90;;;;;;5040176;28;20230;-70
2022/10/13 05:53:50;;;;;;;17.77;11.60;;;14.20;99.90;;;;;;5033759;28;20188;-72
2022/10/13 05:56:20;;;;;;;15.27;11.53;;;14.20;99.90;;;;;;5015473;28;20506;-71
2022/10/13 05:58:50;;;;;;;15.90;11.40;;;14.20;99.90;;;;;;5017962;28;20449;-72
2022/10/13 06:01:20;;;;;;;13.43;11.70;;;14.20;99.90;;;;;;5036233;28;20431;-71
2022/10/13 06:03:48;;;;;;;15.13;11.07;;;14.20;99.90;;;;;;5031468;28;20440;-70
2022/10/13 06:06:14;;;;;;;15.30;10.97;;;14.20;99.90;;;;;;5035475;28;20466;-71
2022/10/13 06:08:41;;;;;;;12.87;11.43;;;14.20;99.90;;;;;;5034352;28;20485;-72
2022/10/13 06:11:07;;;;;;;14.10;11.17;;;14.30;99.90;;;;;;5035964;28;20463;-70
2022/10/13 06:13:33;;;;;;;19.37;11.60;;;14.30;99.90;;;;;;5038041;28;20469;-72
2022/10/13 06:15:59;;;;;;;14.20;11.23;;;14.30;99.90;;;;;;5032939;28;20426;-72
2022/10/13 06:18:25;;;;;;;12.90;9.80;;;14.40;99.90;;;;;;5033960;28;21165;-71
2022/10/13 06:20:50;;;;;;;16.07;11.87;;;14.40;99.90;;;;;;5037268;28;20286;-73
2022/10/13 06:23:16;;;;;;;23.17;11.37;;;14.40;99.90;;;;;;5041306;28;20541;-73
2022/10/13 06:25:49;;;;;;;17.03;10.70;;;14.40;99.90;;;;;;5018646;28;20620;-73
2022/10/13 06:28:17;;;;;;;16.70;12.57;;;14.40;99.90;;;;;;5033437;28;20241;-73
2022/10/13 06:30:46;;;;;;;21.57;11.10;;;14.50;99.90;;;;;;5029287;28;20494;-71
2022/10/13 06:33:12;;;;;;;14.37;10.27;;;14.50;99.90;;;;;;5035939;28;20832;-71
2022/10/13 06:35:38;;;;;;;14.80;11.20;;;14.60;99.90;;;;;;5016928;28;20445;-68
2022/10/13 06:38:03;;;;;;;20.00;11.80;;;14.60;99.90;;;;;;5035573;28;20439;-67
2022/10/13 06:40:29;;;;;;;17.30;11.47;;;14.60;99.90;;;;;;5022252;28;20211;-68
2022/10/13 06:42:55;;;;;;;16.57;10.90;;;14.70;99.90;;;;;;5038694;28;20215;-69
2022/10/13 06:45:20;;;;;;;21.60;12.03;;;14.70;99.90;;;;;;5035643;28;20212;-70
2022/10/13 06:47:46;;;;;;;18.90;12.30;;;14.70;99.90;;;;;;5021715;28;20194;-67
2022/10/13 06:50:12;;;;;;;15.83;12.13;;;14.80;99.90;;;;;;5040320;28;20204;-69
2022/10/13 06:52:38;;;;;;;22.83;13.10;;;14.90;99.90;;;;;;5022801;28;20853;-68
2022/10/13 06:55:04;;;;;;;19.80;12.50;;;14.80;99.90;;;;;;5036564;28;20520;-68
2022/10/13 06:57:30;;;;;;;17.73;13.00;;;14.90;99.90;;;;;;5037693;28;20233;-68
2022/10/13 06:59:55;;;;;;;16.57;12.87;;;14.90;99.90;;;;;;5031444;28;20976;-71
2022/10/13 07:02:21;;;;;;;19.30;13.10;;;14.90;99.90;;;;;;5036488;28;20969;-72
2022/10/13 07:04:47;;;;;;;18.83;12.33;;;15.00;99.90;;;;;;5013473;28;20246;-72
2022/10/13 07:07:14;;;;;;;18.27;12.27;;;15.00;99.90;;;;;;5035434;28;20184;-71
2022/10/13 07:09:40;;;;;;;19.83;12.67;;;15.00;99.90;;;;;;5032549;28;20235;-70
2022/10/13 07:12:06;;;;;;;17.27;11.17;;;15.10;99.90;;;;;;5017948;28;20455;-72
2022/10/13 07:14:32;;;;;;;17.40;12.30;;;15.10;99.90;;;;;;5034585;28;20195;-72
2022/10/13 07:17:03;;;;;;;19.70;13.07;;;15.10;99.90;;;;;;5038099;28;20435;-70
2022/10/13 07:19:28;;;;;;;26.30;12.60;;;15.20;99.90;;;;;;5030234;28;20282;-70
2022/10/13 07:21:55;;;;;;;27.87;13.80;;;15.20;99.90;;;;;;5036098;28;20533;-71
2022/10/13 07:24:20;;;;;;;22.83;13.33;;;15.20;99.90;;;;;;5034929;28;20219;-72
2022/10/13 07:26:46;;;;;;;18.80;13.23;;;15.20;99.90;;;;;;5018505;28;21063;-73
2022/10/13 07:29:12;;;;;;;24.53;13.70;;;15.10;99.90;;;;;;5033221;28;20302;-72
2022/10/13 07:31:37;;;;;;;21.13;14.10;;;15.10;99.90;;;;;;5033137;28;20204;-72
2022/10/13 07:34:04;;;;;;;18.90;12.97;;;15.10;99.90;;;;;;5031320;28;20180;-71
2022/10/13 07:36:31;;;;;;;23.20;14.63;;;15.30;99.90;;;;;;5030108;28;20188;-71
2022/10/13 07:38:57;;;;;;;17.60;13.90;;;15.40;99.90;;;;;;5033506;28;20849;-71
2022/10/13 07:41:24;;;;;;;15.57;13.30;;;15.40;99.90;;;;;;5030349;28;21749;-76
2022/10/13 07:43:54;;;;;;;18.93;13.97;;;15.50;99.90;;;;;;5030459;28;20446;-71
2022/10/13 07:46:20;;;;;;;24.77;14.17;;;15.60;99.90;;;;;;5035159;28;20214;-70
2022/10/13 07:48:46;;;;;;;19.97;12.77;;;15.70;99.90;;;;;;5032952;28;22169;-70
2022/10/13 07:51:12;;;;;;;21.50;14.80;;;15.60;99.90;;;;;;5031835;28;20449;-71
2022/10/13 07:53:39;;;;;;;17.77;12.90;;;15.70;99.90;;;;;;5035842;28;20291;-71
2022/10/13 07:56:06;;;;;;;20.10;14.03;;;15.70;99.90;;;;;;5041638;28;20433;-71
2022/10/13 07:58:35;;;;;;;20.50;14.50;;;15.80;99.90;;;;;;5036518;28;20441;-71
2022/10/13 08:01:01;;;;;;;19.03;13.60;;;15.90;99.90;;;;;;5021087;28;20463;-71
2022/10/13 08:03:28;;;;;;;20.27;13.87;;;16.00;99.90;;;;;;5033514;28;20473;-70
2022/10/13 08:05:54;;;;;;;22.97;14.17;;;16.00;99.90;;;;;;5034802;28;20462;-70
2022/10/13 08:08:21;;;;;;;21.37;12.60;;;16.10;99.90;;;;;;5033497;28;20441;-69
2022/10/13 08:10:46;;;;;;;19.67;13.00;;;16.10;99.90;;;;;;5030391;28;20541;-73
2022/10/13 08:13:13;;;;;;;24.00;13.57;;;16.10;99.90;;;;;;5035257;28;20525;-70
2022/10/13 08:15:40;;;;;;;19.47;13.83;;;16.20;99.90;;;;;;5034011;28;20272;-71
2022/10/13 08:18:06;;;;;;;20.23;13.37;;;16.20;99.90;;;;;;5037886;28;20461;-69
2022/10/13 08:20:33;;;;;;;17.60;12.37;;;16.20;99.90;;;;;;5032313;28;20466;-69
2022/10/13 08:22:58;;;;;;;19.50;13.10;;;16.20;99.90;;;;;;5030809;28;20873;-70
2022/10/13 08:25:24;;;;;;;18.73;12.93;;;16.30;99.90;;;;;;5033183;28;21025;-69
2022/10/13 08:27:50;;;;;;;16.00;13.70;;;16.30;99.90;;;;;;5029773;28;20224;-69
2022/10/13 08:30:15;;;;;;;21.00;14.83;;;16.40;99.90;;;;;;5034916;28;20459;-72
2022/10/13 08:32:41;;;;;;;20.40;14.30;;;16.40;99.90;;;;;;5033640;28;20188;-69
2022/10/13 08:35:08;;;;;;;17.97;13.60;;;16.40;99.90;;;;;;5032294;28;20196;-70
2022/10/13 08:37:34;;;;;;;19.20;13.07;;;16.40;99.90;;;;;;5032305;28;20177;-71
2022/10/13 08:40:00;;;;;;;21.60;13.93;;;16.40;99.90;;;;;;5035603;28;20519;-72
2022/10/13 08:42:25;;;;;;;22.00;12.97;;;16.40;99.90;;;;;;5015881;28;20184;-71
2022/10/13 08:44:57;;;;;;;23.10;14.03;;;16.40;99.90;;;;;;5032631;28;20703;-71
2022/10/13 08:47:36;;;;;;;18.17;13.63;;;16.30;99.90;;;;;;5030068;28;20241;-69
2022/10/13 08:50:09;;;;;;;16.43;12.93;;;16.10;99.90;;;;;;5029547;28;20900;-69
2022/10/13 08:52:46;;;;;;;21.07;14.30;;;16.20;99.90;;;;;;5014985;28;20458;-71
2022/10/13 08:55:23;;;;;;;15.40;12.53;;;16.20;99.90;;;;;;5031327;28;20449;-70
2022/10/13 08:57:49;;;;;;;16.87;13.70;;;16.20;99.90;;;;;;5013182;28;20453;-70
2022/10/13 09:00:14;;;;;;;20.00;15.03;;;16.10;99.90;;;;;;5025230;28;21632;-70
2022/10/13 09:02:42;;;;;;;20.93;14.70;;;16.10;99.90;;;;;;5015182;28;20450;-71
2022/10/13 09:05:14;;;;;;;24.00;14.83;;;16.00;99.90;;;;;;5028467;28;20222;-69
2022/10/13 09:07:43;;;;;;;19.50;13.73;;;16.10;99.90;;;;;;5011304;28;20496;-71
2022/10/13 09:10:09;;;;;;;20.63;14.93;;;16.20;99.90;;;;;;5031952;28;20527;-70
2022/10/13 09:12:35;;;;;;;24.03;16.23;;;16.30;99.90;;;;;;5029843;28;20438;-69
2022/10/13 09:15:04;;;;;;;23.27;16.27;;;16.20;99.90;;;;;;5001560;28;20789;-70
2022/10/13 09:17:31;;;;;;;29.33;18.23;;;16.20;99.90;;;;;;5030064;28;20198;-70
2022/10/13 09:19:59;;;;;;;25.80;17.10;;;16.20;99.90;;;;;;5032677;28;20492;-73
2022/10/13 09:22:26;;;;;;;26.90;17.00;;;16.30;99.90;;;;;;5028856;28;20494;-72
2022/10/13 09:25:10;;;;;;;23.33;17.87;;;16.20;99.90;;;;;;5028306;28;21046;-69
2022/10/13 09:27:55;;;;;;;28.30;18.70;;;16.20;99.90;;;;;;5034100;28;20426;-70
2022/10/13 09:30:34;;;;;;;24.27;15.80;;;16.20;99.90;;;;;;5030460;28;22119;-71
2022/10/13 09:33:15;;;;;;;23.63;14.70;;;16.30;99.90;;;;;;5027905;28;21346;-70
2022/10/13 09:36:09;;;;;;;26.60;17.00;;;16.40;99.90;;;;;;5028655;28;21088;-71
2022/10/13 09:38:37;;;;;;;24.90;18.87;;;16.50;99.90;;;;;;5029013;28;20447;-68
2022/10/13 09:41:12;;;;;;;28.50;19.30;;;16.60;99.90;;;;;;5021311;28;20457;-71
2022/10/13 09:43:47;;;;;;;35.57;20.07;;;16.50;99.90;;;;;;5033570;28;20434;-71
2022/10/13 09:46:29;;;;;;;29.70;18.70;;;16.60;99.90;;;;;;5031714;28;20516;-70
2022/10/13 09:49:20;;;;;;;25.00;18.63;;;16.60;99.90;;;;;;5035181;28;20469;-72
2022/10/13 09:51:46;;;;;;;28.80;17.73;;;16.60;99.90;;;;;;5014958;28;20430;-70
2022/10/13 09:54:34;;;;;;;23.57;17.80;;;16.70;99.90;;;;;;5029671;28;21578;-71
2022/10/13 09:57:22;;;;;;;25.20;17.53;;;16.80;99.90;;;;;;5030659;28;20427;-70
2022/10/13 09:59:52;;;;;;;28.10;17.20;;;16.80;99.90;;;;;;5025202;28;20537;-70
2022/10/13 10:02:39;;;;;;;28.07;18.40;;;16.70;99.90;;;;;;5033417;28;20515;-69
2022/10/13 10:05:24;;;;;;;24.80;18.17;;;16.90;99.90;;;;;;5034305;28;20467;-71
2022/10/13 10:07:50;;;;;;;23.57;17.30;;;17.00;99.90;;;;;;5019095;28;20501;-71
2022/10/13 10:10:32;;;;;;;22.97;17.37;;;17.00;99.90;;;;;;5011862;28;20455;-69
2022/10/13 10:12:58;;;;;;;30.80;18.17;;;16.90;99.90;;;;;;5031838;28;20457;-71
2022/10/13 10:15:35;;;;;;;23.27;17.63;;;16.90;99.90;;;;;;5024896;28;20938;-72
2022/10/13 10:18:13;;;;;;;26.37;18.27;;;16.80;99.90;;;;;;5030312;28;20487;-69
2022/10/13 10:20:47;;;;;;;21.73;17.87;;;17.00;99.90;;;;;;5029814;28;20570;-70
2022/10/13 10:23:21;;;;;;;25.00;18.40;;;17.00;99.90;;;;;;5017474;28;21038;-69
2022/10/13 10:26:12;;;;;;;21.43;17.27;;;17.10;99.90;;;;;;5029153;28;20471;-70
2022/10/13 10:29:10;;;;;;;28.23;19.30;;;17.20;99.90;;;;;;5022329;28;20439;-69
2022/10/13 10:31:51;;;;;;;24.20;18.53;;;17.30;99.90;;;;;;5029678;28;20431;-70
2022/10/13 10:34:44;;;;;;;23.67;17.40;;;17.30;99.90;;;;;;5030577;28;20587;-70
2022/10/13 10:37:24;;;;;;;21.57;15.67;;;17.40;99.90;;;;;;5026824;28;20435;-70
2022/10/13 10:40:11;;;;;;;25.23;17.13;;;17.50;99.90;;;;;;5027486;28;20474;-69
2022/10/13 10:43:16;;;;;;;28.97;17.90;;;17.60;99.90;;;;;;5033204;28;20497;-70
2022/10/13 10:45:43;;;;;;;23.10;18.50;;;17.70;99.90;;;;;;5029801;28;20454;-71
2022/10/13 10:48:21;;;;;;;27.17;18.77;;;17.70;99.90;;;;;;5025838;28;20449;-70
2022/10/13 10:50:48;;;;;;;29.93;18.70;;;17.80;99.90;;;;;;5031537;28;20453;-70
2022/10/13 10:53:40;;;;;;;25.20;17.87;;;17.60;99.90;;;;;;5034857;28;21118;-71
2022/10/13 10:56:20;;;;;;;30.83;17.73;;;17.60;99.90;;;;;;5029759;28;20533;-69
2022/10/13 10:59:04;;;;;;;22.10;18.27;;;17.70;99.90;;;;;;5032099;28;20450;-72
2022/10/13 11:01:55;;;;;;;23.57;18.53;;;17.60;99.90;;;;;;5030153;28;20438;-71
2022/10/13 11:04:41;;;;;;;29.10;17.77;;;17.50;99.90;;;;;;5026167;28;20449;-70
2022/10/13 11:07:34;;;;;;;24.47;17.60;;;17.40;99.90;;;;;;5033074;28;20483;-70
2022/10/13 11:10:20;;;;;;;23.07;18.33;;;17.40;99.90;;;;;;4991042;28;20463;-69
2022/10/13 11:12:51;;;;;;;25.50;18.13;;;17.40;99.90;;;;;;5026828;28;20476;-72
2022/10/13 11:15:27;;;;;;;25.87;19.20;;;17.40;99.90;;;;;;5031193;28;20447;-71
2022/10/13 11:17:53;;;;;;;26.30;19.10;;;17.30;99.90;;;;;;5032774;28;21122;-73
2022/10/13 11:20:19;;;;;;;26.60;18.83;;;17.30;99.90;;;;;;5034505;28;20459;-70
2022/10/13 11:23:00;;;;;;;23.13;16.40;;;17.40;99.90;;;;;;5039449;28;20442;-70
2022/10/13 11:25:40;;;;;;;26.83;17.90;;;17.30;99.90;;;;;;5038035;28;20227;-69
2022/10/13 11:28:21;;;;;;;24.27;18.07;;;17.30;99.90;;;;;;5031694;28;20826;-70
2022/10/13 11:30:56;;;;;;;29.73;18.20;;;17.40;99.90;;;;;;5038644;28;20512;-71
2022/10/13 11:33:39;;;;;;;25.17;19.17;;;17.50;99.90;;;;;;5032653;28;20413;-70
2022/10/13 11:36:42;;;;;;;22.60;17.80;;;17.60;99.90;;;;;;5035245;28;20433;-69
2022/10/13 11:39:32;;;;;;;24.40;18.50;;;17.60;99.90;;;;;;5031015;28;20442;-70
2022/10/13 11:42:18;;;;;;;27.13;16.53;;;17.50;99.90;;;;;;5035419;28;20557;-69
2022/10/13 11:44:53;;;;;;;28.07;16.30;;;17.70;99.90;;;;;;5038429;28;20441;-69
2022/10/13 11:47:28;;;;;;;27.07;17.20;;;17.90;99.90;;;;;;5025400;28;20446;-69
2022/10/13 11:50:05;;;;;;;24.63;17.10;;;18.00;99.90;;;;;;5039602;28;20981;-70
2022/10/13 11:52:57;;;;;;;24.57;17.17;;;18.10;99.90;;;;;;5040854;28;20421;-68
2022/10/13 11:55:32;;;;;;;23.63;16.43;;;18.20;99.90;;;;;;5018555;28;21015;-70
2022/10/13 11:58:28;;;;;;;30.07;18.80;;;18.40;99.90;;;;;;5035197;28;20429;-70
2022/10/13 12:01:00;;;;;;;29.87;17.97;;;18.50;99.90;;;;;;5033918;28;20451;-69
2022/10/13 12:03:40;;;;;;;25.80;18.67;;;18.70;99.90;;;;;;5038275;28;20456;-70
2022/10/13 12:06:32;;;;;;;24.53;17.03;;;18.80;99.90;;;;;;5030085;28;20705;-68
2022/10/13 12:09:18;;;;;;;24.30;16.13;;;18.80;99.90;;;;;;5030665;28;20441;-68
2022/10/13 12:11:44;;;;;;;22.17;16.80;;;18.80;99.90;;;;;;5036523;28;20504;-69
2022/10/13 12:14:22;;;;;;;22.83;16.03;;;18.80;99.90;;;;;;5035308;28;20435;-69
2022/10/13 12:16:59;;;;;;;21.50;16.53;;;18.80;99.90;;;;;;5031409;28;20944;-69
2022/10/13 12:19:29;;;;;;;22.80;16.27;;;18.70;99.90;;;;;;5022615;28;21181;-68
2022/10/13 12:22:00;;;;;;;28.70;17.23;;;18.70;99.90;;;;;;5025579;28;20446;-72
2022/10/13 12:24:28;;;;;;;19.97;16.07;;;18.70;99.90;;;;;;5038178;28;20441;-69
2022/10/13 12:26:55;;;;;;;23.90;17.10;;;18.70;99.90;;;;;;5037079;28;20462;-71
2022/10/13 12:29:28;;;;;;;24.50;16.57;;;18.80;99.90;;;;;;5041369;28;20461;-69
2022/10/13 12:31:57;;;;;;;22.73;16.90;;;18.80;99.90;;;;;;5020838;28;20422;-71
2022/10/13 12:34:26;;;;;;;22.50;15.03;;;18.80;99.90;;;;;;5021661;28;20437;-69
2022/10/13 12:37:02;;;;;;;25.47;16.57;;;18.70;99.90;;;;;;5022034;28;20496;-69
2022/10/13 12:39:30;;;;;;;21.30;16.10;;;18.60;99.90;;;;;;5034149;28;20479;-69
2022/10/13 12:41:57;;;;;;;20.63;17.23;;;18.60;99.90;;;;;;5028776;28;20434;-70
2022/10/13 12:44:25;;;;;;;24.67;16.63;;;18.70;99.90;;;;;;5025232;28;20481;-68
2022/10/13 12:46:55;;;;;;;29.00;17.37;;;18.70;99.90;;;;;;5033581;28;20469;-68